createdAt,value
2023-03-21T00:00:43.934Z,8.29
2023-03-21T00:03:11.269Z,8.29
2023-03-21T00:05:43.201Z,8.23
2023-03-21T00:08:10.351Z,8.26
2023-03-21T00:10:41.186Z,8.21
2023-03-21T00:13:15.411Z,8.26
2023-03-21T00:16:13.868Z,8.28
2023-03-21T00:18:48.712Z,8.30
2023-03-21T00:24:06.645Z,8.03
2023-03-21T00:26:34.049Z,8.09
2023-03-21T00:29:01.740Z,8.07
2023-03-21T00:31:28.712Z,8.16
2023-03-21T00:33:55.679Z,8.05
2023-03-21T00:36:26.247Z,8.08
2023-03-21T00:38:53.835Z,8.27
2023-03-21T00:41:35.032Z,8.28
2023-03-21T00:44:08.064Z,8.46
2023-03-21T00:46:47.035Z,8.46
2023-03-21T00:49:20.870Z,8.34
2023-03-21T00:51:51.764Z,8.39
2023-03-21T00:54:19.714Z,8.57
2023-03-21T00:56:46.716Z,8.53
2023-03-21T00:59:14.068Z,8.54
2023-03-21T01:01:41.108Z,8.53
2023-03-21T01:04:13.677Z,8.42
2023-03-21T01:06:43.156Z,8.39
2023-03-21T01:09:21.485Z,8.67
2023-03-21T01:11:49.980Z,8.46
2023-03-21T01:14:23.120Z,8.18
2023-03-21T01:16:54.346Z,8.02
2023-03-21T01:19:37.533Z,7.97
2023-03-21T01:22:12.067Z,8.31
2023-03-21T01:24:50.295Z,8.41
2023-03-21T01:27:20.360Z,8.16
2023-03-21T01:29:48.899Z,8.00
2023-03-21T01:32:16.853Z,8.05
2023-03-21T01:34:43.973Z,7.89
2023-03-21T01:37:11.057Z,8.00
2023-03-21T01:39:46.232Z,8.14
2023-03-21T01:42:14.331Z,7.86
2023-03-21T01:45:01.421Z,7.97
2023-03-21T01:47:45.782Z,7.95
2023-03-21T01:50:26.424Z,7.62
2023-03-21T01:53:02.702Z,7.68
2023-03-21T01:55:32.363Z,7.81
2023-03-21T01:58:14.218Z,7.76
2023-03-21T02:01:02.873Z,7.73
2023-03-21T02:03:50.293Z,7.62
2023-03-21T02:06:54.483Z,7.66
2023-03-21T02:09:46.744Z,7.97
2023-03-21T02:12:18.819Z,8.41
2023-03-21T02:14:49.285Z,8.54
2023-03-21T02:17:51.429Z,8.53
2023-03-21T02:21:06.770Z,8.80
2023-03-21T02:24:10.503Z,8.47
2023-03-21T02:26:42.892Z,8.20
2023-03-21T02:29:45.724Z,8.27
2023-03-21T02:32:38.817Z,8.19
2023-03-21T02:35:30.297Z,8.18
2023-03-21T02:38:01.485Z,8.26
2023-03-21T02:40:58.528Z,8.22
2023-03-21T02:43:32.389Z,8.04
2023-03-21T02:46:09.869Z,8.04
2023-03-21T02:48:56.848Z,7.74
2023-03-21T02:51:27.767Z,7.76
2023-03-21T02:54:26.053Z,7.83
2023-03-21T02:56:50.700Z,7.78
2023-03-21T02:59:20.040Z,7.72
2023-03-21T03:01:47.614Z,7.74
2023-03-21T03:04:22.751Z,7.83
2023-03-21T03:06:58.990Z,7.82
2023-03-21T03:10:02.811Z,7.78
2023-03-21T03:12:49.112Z,8.09
2023-03-21T03:15:33.580Z,7.69
2023-03-21T03:18:16.252Z,7.59
2023-03-21T03:21:08.394Z,7.76
2023-03-21T03:24:07.554Z,7.66
2023-03-21T03:26:39.905Z,7.63
2023-03-21T03:29:12.614Z,7.77
2023-03-21T03:31:46.283Z,7.93
2023-03-21T03:34:18.179Z,7.81
2023-03-21T03:36:51.836Z,7.70
2023-03-21T03:39:19.406Z,7.91
2023-03-21T03:42:15.433Z,8.29
2023-03-21T03:44:58.245Z,7.89
2023-03-21T03:48:02.643Z,7.96
2023-03-21T03:50:43.003Z,7.80
2023-03-21T03:53:28.647Z,7.84
2023-03-21T03:55:57.612Z,8.04
2023-03-21T03:58:39.492Z,8.10
2023-03-21T04:01:12.589Z,7.81
2023-03-21T04:03:49.849Z,7.75
2023-03-21T04:06:19.532Z,7.91
2023-03-21T04:08:49.015Z,7.66
2023-03-21T04:11:16.518Z,7.45
2023-03-21T04:13:48.538Z,7.48
2023-03-21T04:16:21.305Z,7.52
2023-03-21T04:18:48.746Z,7.52
2023-03-21T04:21:18.908Z,7.70
2023-03-21T04:23:46.025Z,7.85
2023-03-21T04:26:13.140Z,7.83
2023-03-21T04:28:49.421Z,7.95
2023-03-21T04:31:37.295Z,7.94
2023-03-21T04:34:12.769Z,7.79
2023-03-21T04:36:46.384Z,7.71
2023-03-21T04:39:15.137Z,7.82
2023-03-21T04:41:46.839Z,7.99
2023-03-21T04:44:15.948Z,7.99
2023-03-21T04:46:43.602Z,7.98
2023-03-21T04:49:11.990Z,8.07
2023-03-21T04:51:39.675Z,8.01
2023-03-21T04:56:38.212Z,8.26
2023-03-21T04:59:11.757Z,8.23
2023-03-21T05:01:41.374Z,8.04
2023-03-21T05:04:10.827Z,8.38
2023-03-21T05:06:39.474Z,8.20
2023-03-21T05:09:07.249Z,8.12
2023-03-21T05:11:38.100Z,7.94
2023-03-21T05:14:08.041Z,7.88
2023-03-21T05:16:36.547Z,8.04
2023-03-21T05:19:04.058Z,8.10
2023-03-21T05:21:41.680Z,8.32
2023-03-21T05:24:16.384Z,8.43
2023-03-21T05:26:44.560Z,8.28
2023-03-21T05:29:18.463Z,7.91
2023-03-21T05:31:52.183Z,8.02
2023-03-21T05:34:20.512Z,8.05
2023-03-21T05:36:47.962Z,8.19
2023-03-21T05:39:14.976Z,8.10
2023-03-21T05:41:50.869Z,8.47
2023-03-21T05:44:17.941Z,8.40
2023-03-21T05:46:45.140Z,8.52
2023-03-21T05:49:13.067Z,8.57
2023-03-21T05:51:41.255Z,8.76
2023-03-21T05:54:08.383Z,8.52
2023-03-21T05:56:35.476Z,8.80
2023-03-21T05:59:05.352Z,9.01
2023-03-21T06:01:37.629Z,9.01
2023-03-21T06:04:13.377Z,8.77
2023-03-21T06:06:40.890Z,8.59
2023-03-21T06:09:08.865Z,8.23
2023-03-21T06:11:37.967Z,7.99
2023-03-21T06:14:28.020Z,8.04
2023-03-21T06:17:16.074Z,8.28
2023-03-21T06:19:48.584Z,8.34
2023-03-21T06:22:32.363Z,8.35
2023-03-21T06:25:01.128Z,8.48
2023-03-21T06:27:28.889Z,8.31
2023-03-21T06:29:58.143Z,8.50
2023-03-21T06:32:27.428Z,8.65
2023-03-21T06:35:06.732Z,8.52
2023-03-21T06:37:34.185Z,8.61
2023-03-21T06:40:01.362Z,8.54
2023-03-21T06:42:29.631Z,8.60
2023-03-21T06:45:01.874Z,8.50
2023-03-21T06:47:29.314Z,8.83
2023-03-21T06:49:56.725Z,8.92
2023-03-21T06:52:23.932Z,8.85
2023-03-21T06:54:53.629Z,8.81
2023-03-21T06:57:22.150Z,8.92
2023-03-21T06:59:50.904Z,9.04
2023-03-21T07:02:23.540Z,8.50
2023-03-21T07:05:11.335Z,8.37
2023-03-21T07:07:39.551Z,8.23
2023-03-21T07:10:09.476Z,8.40
2023-03-21T07:12:45.401Z,8.49
2023-03-21T07:15:17.582Z,8.28
2023-03-21T07:17:46.245Z,8.15
2023-03-21T07:20:13.467Z,8.31
2023-03-21T07:22:41.143Z,8.72
2023-03-21T07:25:08.667Z,8.74
2023-03-21T07:27:41.394Z,8.48
2023-03-21T07:30:10.504Z,8.39
2023-03-21T07:32:38.169Z,8.17
2023-03-21T07:35:11.718Z,8.10
2023-03-21T07:37:39.856Z,8.11
2023-03-21T07:40:12.607Z,8.22
2023-03-21T07:42:41.403Z,8.15
2023-03-21T07:45:11.575Z,8.32
2023-03-21T07:47:38.629Z,8.09
2023-03-21T07:50:06.433Z,7.99
2023-03-21T07:52:33.556Z,7.97
2023-03-21T07:55:00.512Z,8.18
2023-03-21T07:57:27.663Z,8.29
2023-03-21T07:59:54.642Z,8.02
2023-03-21T08:02:21.718Z,7.91
2023-03-21T08:04:48.862Z,8.06
2023-03-21T08:07:15.939Z,7.97
2023-03-21T08:09:45.813Z,7.97
2023-03-21T08:12:12.831Z,8.00
2023-03-21T08:14:39.896Z,8.00
2023-03-21T08:17:09.605Z,7.86
2023-03-21T08:19:37.686Z,7.75
2023-03-21T08:22:07.035Z,8.14
2023-03-21T08:24:34.469Z,8.14
2023-03-21T08:27:02.461Z,8.12
2023-03-21T08:29:29.558Z,8.11
2023-03-21T08:31:56.677Z,8.29
2023-03-21T08:34:24.008Z,8.31
2023-03-21T08:36:51.001Z,8.53
2023-03-21T08:39:18.242Z,8.61
2023-03-21T08:41:45.451Z,8.51
2023-03-21T08:44:12.988Z,8.91
2023-03-21T08:46:40.093Z,9.69
2023-03-21T08:49:07.144Z,10.02
2023-03-21T08:51:34.253Z,9.85
2023-03-21T08:54:01.445Z,9.59
2023-03-21T08:56:28.496Z,9.90
2023-03-21T08:58:55.509Z,10.46
2023-03-21T09:01:22.574Z,10.31
2023-03-21T09:03:49.610Z,10.50
2023-03-21T09:06:17.524Z,9.94
2023-03-21T09:08:46.432Z,10.29
2023-03-21T09:11:14.577Z,9.34
2023-03-21T09:13:41.607Z,8.70
2023-03-21T09:16:08.854Z,8.67
2023-03-21T09:18:45.476Z,8.66
2023-03-21T09:21:13.603Z,9.07
2023-03-21T09:23:41.655Z,8.82
2023-03-21T09:26:09.866Z,8.58
2023-03-21T09:28:40.694Z,8.85
2023-03-21T09:31:11.463Z,8.69
2023-03-21T09:33:42.541Z,8.65
2023-03-21T09:36:21.953Z,8.60
2023-03-21T09:38:50.189Z,8.80
2023-03-21T09:41:35.458Z,8.80
2023-03-21T09:44:23.004Z,9.13
2023-03-21T09:47:07.099Z,9.26
2023-03-21T09:49:48.612Z,8.96
2023-03-21T09:52:25.875Z,9.30
2023-03-21T09:54:55.832Z,8.94
2023-03-21T09:57:41.966Z,8.72
2023-03-21T10:00:23.233Z,8.94
2023-03-21T10:02:55.509Z,9.19
2023-03-21T10:05:27.179Z,9.18
2023-03-21T10:07:59.905Z,9.10
2023-03-21T10:10:29.907Z,9.51
2023-03-21T10:12:56.891Z,9.77
2023-03-21T10:15:26.337Z,9.73
2023-03-21T10:18:01.922Z,9.94
2023-03-21T10:20:33.540Z,9.98
2023-03-21T10:23:04.735Z,10.39
2023-03-21T10:25:33.846Z,9.98
2023-03-21T10:28:03.109Z,9.64
2023-03-21T10:30:37.394Z,9.19
2023-03-21T10:33:09.724Z,9.36
2023-03-21T10:35:40.343Z,9.71
2023-03-21T10:38:15.834Z,10.78
2023-03-21T10:40:42.936Z,10.04
2023-03-21T10:43:20.678Z,9.75
2023-03-21T10:45:48.639Z,9.59
2023-03-21T10:48:16.079Z,9.55
2023-03-21T10:50:47.060Z,10.16
2023-03-21T10:53:31.948Z,10.17
2023-03-21T10:56:01.611Z,10.25
2023-03-21T10:58:34.951Z,11.17
2023-03-21T11:01:05.174Z,10.69
2023-03-21T11:03:37.041Z,9.97
2023-03-21T11:06:32.597Z,10.08
2023-03-21T11:09:17.057Z,10.53
2023-03-21T11:12:23.857Z,10.72
2023-03-21T11:14:53.856Z,10.94
2023-03-21T11:17:28.387Z,10.40
2023-03-21T11:20:05.794Z,9.69
2023-03-21T11:22:42.554Z,9.97
2023-03-21T11:25:22.413Z,9.94
2023-03-21T11:27:55.096Z,10.92
2023-03-21T11:30:25.190Z,10.62
2023-03-21T11:32:56.653Z,9.97
2023-03-21T11:35:34.459Z,9.75
2023-03-21T11:38:01.508Z,10.39
2023-03-21T11:40:32.003Z,10.23
2023-03-21T11:42:59.963Z,9.64
2023-03-21T11:45:34.742Z,9.76
2023-03-21T11:48:13.551Z,9.89
2023-03-21T11:50:45.617Z,9.79
2023-03-21T11:53:41.862Z,9.73
2023-03-21T11:56:28.840Z,9.53
2023-03-21T11:59:20.237Z,9.32
2023-03-21T12:01:53.307Z,9.32
2023-03-21T12:04:42.028Z,9.44
2023-03-21T12:07:30.377Z,9.13
2023-03-21T12:10:06.670Z,9.02
2023-03-21T12:13:17.183Z,9.25
2023-03-21T12:15:53.790Z,9.16
2023-03-21T12:18:27.996Z,9.13
2023-03-21T12:21:00.744Z,9.16
2023-03-21T12:23:33.167Z,9.00
2023-03-21T12:26:23.494Z,9.36
2023-03-21T12:29:08.580Z,9.25
2023-03-21T12:32:12.780Z,9.22
2023-03-21T12:34:58.194Z,9.25
2023-03-21T12:37:48.648Z,9.01
2023-03-21T12:40:54.485Z,8.98
2023-03-21T12:43:29.655Z,9.17
2023-03-21T12:46:03.575Z,8.69
2023-03-21T12:48:36.748Z,8.51
2023-03-21T12:51:08.604Z,9.02
2023-03-21T12:53:59.327Z,8.74
2023-03-21T12:56:34.404Z,8.64
2023-03-21T12:59:26.179Z,8.80
2023-03-21T13:01:58.847Z,8.62
2023-03-21T13:04:39.339Z,8.53
2023-03-21T13:07:11.622Z,8.47
2023-03-21T13:09:41.341Z,8.39
2023-03-21T13:12:43.467Z,8.39
2023-03-21T13:15:44.494Z,8.60
2023-03-21T13:18:33.158Z,8.55
2023-03-21T13:21:34.731Z,8.45
2023-03-21T13:24:37.571Z,8.50
2023-03-21T13:27:14.935Z,8.27
2023-03-21T13:29:51.898Z,8.15
2023-03-21T13:32:34.192Z,8.19
2023-03-21T13:35:09.882Z,8.29
2023-03-21T13:37:41.267Z,8.12
2023-03-21T13:40:22.050Z,8.26
2023-03-21T13:42:55.539Z,8.52
2023-03-21T13:45:45.322Z,8.28
2023-03-21T13:48:30.507Z,8.58
2023-03-21T13:51:03.654Z,8.42
2023-03-21T13:53:38.139Z,8.17
2023-03-21T13:56:12.571Z,8.12
2023-03-21T13:58:51.256Z,8.14
2023-03-21T14:01:33.186Z,8.08
2023-03-21T14:04:24.026Z,7.98
2023-03-21T14:07:22.021Z,8.06
2023-03-21T14:09:59.856Z,7.97
2023-03-21T14:12:30.062Z,7.97
2023-03-21T14:15:15.929Z,8.27
2023-03-21T14:17:57.659Z,8.14
2023-03-21T14:20:31.267Z,8.02
2023-03-21T14:22:58.631Z,8.03
2023-03-21T14:25:40.779Z,8.01
2023-03-21T14:28:24.235Z,7.80
2023-03-21T14:31:00.546Z,7.95
2023-03-21T14:33:39.612Z,7.95
2023-03-21T14:36:19.700Z,7.85
2023-03-21T14:39:17.926Z,8.07
2023-03-21T14:41:50.954Z,8.09
2023-03-21T14:44:38.071Z,7.92
2023-03-21T14:47:20.905Z,8.08
2023-03-21T14:49:49.872Z,8.14
2023-03-21T14:52:24.034Z,8.00
2023-03-21T14:54:52.429Z,8.43
2023-03-21T14:57:23.007Z,8.92
2023-03-21T14:59:54.394Z,8.82
2023-03-21T15:02:28.751Z,9.38
2023-03-21T15:04:58.418Z,9.38
2023-03-21T15:07:29.757Z,9.72
2023-03-21T15:10:01.178Z,9.82
2023-03-21T15:12:28.193Z,9.57
2023-03-21T15:14:55.782Z,9.44
2023-03-21T15:17:24.774Z,8.92
2023-03-21T15:19:51.841Z,8.72
2023-03-21T15:22:24.686Z,9.05
2023-03-21T15:24:56.036Z,8.80
2023-03-21T15:27:25.857Z,8.48
2023-03-21T15:29:57.158Z,8.71
2023-03-21T15:32:27.533Z,8.71
2023-03-21T15:34:56.748Z,8.68
2023-03-21T15:37:27.245Z,8.62
2023-03-21T15:40:06.353Z,8.73
2023-03-21T15:42:41.239Z,8.69
2023-03-21T15:45:23.580Z,8.86
2023-03-21T15:48:27.170Z,8.58
2023-03-21T15:51:21.200Z,8.21
2023-03-21T15:53:51.270Z,8.16
2023-03-21T15:56:21.632Z,8.36
2023-03-21T15:58:51.732Z,8.16
2023-03-21T16:01:22.094Z,8.16
2023-03-21T16:03:56.531Z,8.26
2023-03-21T16:06:33.617Z,8.07
2023-03-21T16:09:14.856Z,8.02
2023-03-21T16:11:44.516Z,8.11
2023-03-21T16:14:11.579Z,8.33
2023-03-21T16:16:38.650Z,8.41
2023-03-21T16:19:07.409Z,8.48
2023-03-21T16:21:38.230Z,8.51
2023-03-21T16:24:06.738Z,8.50
2023-03-21T16:26:37.558Z,8.33
2023-03-21T16:29:06.052Z,8.39
2023-03-21T16:31:35.011Z,8.48
2023-03-21T16:34:02.206Z,8.49
2023-03-21T16:36:32.980Z,8.74
2023-03-21T16:39:00.626Z,8.68
2023-03-21T16:41:28.405Z,8.43
2023-03-21T16:43:55.599Z,8.38
2023-03-21T16:46:25.594Z,8.28
2023-03-21T16:48:54.955Z,8.18
2023-03-21T16:51:27.149Z,8.10
2023-03-21T16:53:54.381Z,8.36
2023-03-21T16:56:27.337Z,8.21
2023-03-21T16:58:55.133Z,8.15
2023-03-21T17:01:27.581Z,8.16
2023-03-21T17:03:54.646Z,8.43
2023-03-21T17:06:24.619Z,8.57
2023-03-21T17:08:52.850Z,8.74
2023-03-21T17:11:21.993Z,9.17
2023-03-21T17:13:54.462Z,9.45
2023-03-21T17:16:26.742Z,9.79
2023-03-21T17:18:54.115Z,9.68
2023-03-21T17:21:24.295Z,9.44
2023-03-21T17:23:52.030Z,9.31
2023-03-21T17:26:25.980Z,9.06
2023-03-21T17:28:55.373Z,8.88
2023-03-21T17:31:25.486Z,9.08
2023-03-21T17:33:52.617Z,8.86
2023-03-21T17:36:26.617Z,8.00
2023-03-21T17:38:53.834Z,7.73
2023-03-21T17:41:22.340Z,7.62
2023-03-21T17:43:51.055Z,7.53
2023-03-21T17:46:22.404Z,7.50
2023-03-21T17:48:50.432Z,7.41
2023-03-21T17:51:17.951Z,7.47
2023-03-21T17:53:46.770Z,7.40
2023-03-21T17:56:16.590Z,7.39
2023-03-21T17:58:44.074Z,7.45
2023-03-21T18:01:11.564Z,7.54
2023-03-21T18:03:38.651Z,7.61
2023-03-21T18:06:06.665Z,7.64
2023-03-21T18:08:33.888Z,7.63
2023-03-21T18:11:01.054Z,7.59
2023-03-21T18:13:28.099Z,7.56
2023-03-21T18:15:56.377Z,7.64
2023-03-21T18:18:23.614Z,7.77
2023-03-21T18:20:53.488Z,7.68
2023-03-21T18:23:21.571Z,7.72
2023-03-21T18:25:49.705Z,7.65
2023-03-21T18:28:20.542Z,7.59
2023-03-21T18:33:38.321Z,7.82
2023-03-21T18:36:07.805Z,7.86
2023-03-21T18:38:36.561Z,7.85
2023-03-21T18:41:03.719Z,7.79
2023-03-21T18:46:18.193Z,8.41
2023-03-21T18:48:45.136Z,8.47
2023-03-21T18:51:12.530Z,8.53
2023-03-21T18:53:39.555Z,8.62
2023-03-21T18:56:10.210Z,8.73
2023-03-21T18:58:37.761Z,8.44
2023-03-21T19:01:05.305Z,8.33
2023-03-21T19:03:37.112Z,8.31
2023-03-21T19:06:06.566Z,8.66
2023-03-21T19:08:36.968Z,8.59
2023-03-21T19:11:06.608Z,8.63
2023-03-21T19:13:34.608Z,8.39
2023-03-21T19:16:02.670Z,8.25
2023-03-21T19:21:19.980Z,8.14
2023-03-21T19:24:22.875Z,8.00
2023-03-21T19:26:35.034Z,8.05
2023-03-21T19:29:02.080Z,7.97
2023-03-21T19:31:29.166Z,8.25
2023-03-21T19:33:57.162Z,8.11
2023-03-21T19:36:25.983Z,8.31
2023-03-21T19:38:53.691Z,7.97
2023-03-21T19:41:20.762Z,8.21
2023-03-21T19:43:55.011Z,8.45
2023-03-21T19:46:25.571Z,8.58
2023-03-21T19:48:56.950Z,8.31
2023-03-21T19:51:29.259Z,8.26
2023-03-21T19:54:04.245Z,8.79
2023-03-21T19:56:31.934Z,8.67
2023-03-21T19:58:59.991Z,8.27
2023-03-21T20:01:27.738Z,8.00
2023-03-21T20:03:55.329Z,8.08
2023-03-21T20:06:24.023Z,8.21
2023-03-21T20:11:39.443Z,7.98
2023-03-21T20:14:06.600Z,8.02
2023-03-21T20:16:35.529Z,8.02
2023-03-21T20:19:09.198Z,7.95
2023-03-21T20:21:48.232Z,8.04
2023-03-21T20:24:17.925Z,8.52
2023-03-21T20:26:46.005Z,8.18
2023-03-21T20:30:07.112Z,8.33
2023-03-21T20:32:00.389Z,8.22
2023-03-21T20:34:30.287Z,8.19
2023-03-21T20:36:58.527Z,8.28
2023-03-21T20:39:27.934Z,8.00
2023-03-21T20:41:55.681Z,8.10
2023-03-21T20:47:10.037Z,8.33
2023-03-21T20:49:37.126Z,8.64
2023-03-21T20:54:54.212Z,9.38
2023-03-21T20:57:21.300Z,9.50
2023-03-21T20:59:48.285Z,9.50
2023-03-21T21:02:15.876Z,9.33
2023-03-21T21:04:59.973Z,9.39
2023-03-21T21:07:29.893Z,9.33
2023-03-21T21:09:57.845Z,9.31
2023-03-21T21:12:27.807Z,9.23
2023-03-21T21:14:57.800Z,9.04
2023-03-21T21:20:17.343Z,9.08
2023-03-21T21:22:59.046Z,8.75
2023-03-21T21:25:29.279Z,8.63
2023-03-21T21:27:56.347Z,8.79
2023-03-21T21:30:23.749Z,8.82
2023-03-21T21:32:50.949Z,8.76
2023-03-21T21:35:19.728Z,8.82
2023-03-21T21:37:46.740Z,8.94
2023-03-21T21:40:20.593Z,9.00
2023-03-21T21:42:47.934Z,8.95
2023-03-21T21:45:15.891Z,8.79
2023-03-21T21:47:44.565Z,8.70
2023-03-21T21:50:11.715Z,8.54
2023-03-21T21:52:38.781Z,8.63
2023-03-21T21:55:06.647Z,8.83
2023-03-21T21:57:34.892Z,8.84
2023-03-21T22:00:06.998Z,9.05
2023-03-21T22:02:41.569Z,9.06
2023-03-21T22:05:09.635Z,8.89
2023-03-21T22:07:38.178Z,8.98
2023-03-21T22:10:05.810Z,9.39
2023-03-21T22:12:32.872Z,9.60
2023-03-21T22:14:59.834Z,9.67
2023-03-21T22:17:26.843Z,9.75
2023-03-21T22:20:05.073Z,9.97
2023-03-21T22:22:34.611Z,10.17
2023-03-21T22:25:02.514Z,10.30
2023-03-21T22:27:29.579Z,10.37
2023-03-21T22:29:56.728Z,10.23
2023-03-21T22:32:23.921Z,10.24
2023-03-21T22:34:51.309Z,10.14
2023-03-21T22:37:18.229Z,10.47
2023-03-21T22:39:45.510Z,10.36
2023-03-21T22:42:12.491Z,10.17
2023-03-21T22:44:39.507Z,10.26
2023-03-21T22:47:09.246Z,10.00
2023-03-21T22:49:37.013Z,10.13
2023-03-21T22:52:05.744Z,10.32
2023-03-21T22:54:33.288Z,10.11
2023-03-21T22:57:00.768Z,10.37
2023-03-21T22:59:28.357Z,10.11
2023-03-21T23:01:55.751Z,10.56
2023-03-21T23:04:23.787Z,10.70
2023-03-21T23:06:50.858Z,10.70
2023-03-21T23:09:18.277Z,10.71
2023-03-21T23:11:49.138Z,10.82
2023-03-21T23:14:17.615Z,10.89
2023-03-21T23:16:45.085Z,10.84
2023-03-21T23:19:12.349Z,10.71
2023-03-21T23:21:40.217Z,10.69
2023-03-21T23:24:07.719Z,10.90
2023-03-21T23:26:34.803Z,10.73
2023-03-21T23:29:01.919Z,10.84
2023-03-21T23:31:28.990Z,10.80
2023-03-21T23:33:58.970Z,10.83
2023-03-21T23:36:26.558Z,10.61
2023-03-21T23:38:53.644Z,10.68
2023-03-21T23:41:23.136Z,10.74
2023-03-21T23:43:50.485Z,10.69
2023-03-21T23:46:19.146Z,10.39
2023-03-21T23:48:47.018Z,10.77
2023-03-21T23:51:16.759Z,10.86
2023-03-21T23:53:45.388Z,11.02
2023-03-21T23:56:13.752Z,10.99
2023-03-21T23:58:40.810Z,10.96
